Time;durP1;ratioP1;P1;durP2;ratioP2;P2;SDS_P1;SDS_P2;PMS_P1;PMS_P2;Temp;Humidity;BMP_temperature;BMP_pressure;BME280_temperature;BME280_humidity;BME280_pressure;Samples;Min_cycle;Max_cycle;Signal;HPM_P1;HPM_P2
2023/04/20 00:00:38;;;;;;;0.10;0.10;;;7.30;99.90;;;;;;5076691;28;20038;-81
2023/04/20 00:03:04;;;;;;;0.00;0.00;;;7.30;99.90;;;;;;5084451;28;20032;-80
2023/04/20 00:05:33;;;;;;;0.05;0.05;;;7.30;99.90;;;;;;5092665;28;20055;-78
2023/04/20 00:08:00;;;;;;;0.17;0.17;;;7.20;99.90;;;;;;5081263;28;20040;-79
2023/04/20 00:10:25;;;;;;;0.00;0.00;;;7.30;99.90;;;;;;5059280;28;20079;-80
2023/04/20 00:12:51;;;;;;;0.40;0.40;;;7.40;99.90;;;;;;5072155;28;20050;-79
2023/04/20 00:15:17;;;;;;;0.10;0.10;;;7.50;96.90;;;;;;5069099;28;20041;-79
2023/04/20 00:17:43;;;;;;;0.47;0.40;;;7.60;79.10;;;;;;5069058;28;20060;-78
2023/04/20 00:20:09;;;;;;;0.28;0.28;;;7.80;77.50;;;;;;5049955;28;20062;-78
2023/04/20 00:22:35;;;;;;;0.00;0.00;;;7.70;70.40;;;;;;5068242;28;20102;-80
2023/04/20 00:25:02;;;;;;;0.60;0.52;;;7.80;78.60;;;;;;5071372;28;20161;-79
2023/04/20 00:27:27;;;;;;;0.00;0.00;;;7.80;70.50;;;;;;5071492;28;20041;-80
2023/04/20 00:29:53;;;;;;;1.80;0.10;;;7.80;85.20;;;;;;5068771;28;20075;-80
2023/04/20 00:32:19;;;;;;;0.00;0.00;;;7.90;88.40;;;;;;5053229;28;20037;-79
2023/04/20 00:34:44;;;;;;;0.00;0.00;;;7.90;77.70;;;;;;5065555;28;20075;-79
2023/04/20 00:37:10;;;;;;;0.00;0.00;;;7.90;73.30;;;;;;5067935;28;20525;-79
2023/04/20 00:39:36;;;;;;;0.03;0.03;;;8.60;68.70;;;;;;5069698;28;20577;-79
2023/04/20 00:42:04;;;;;;;0.00;0.00;;;8.00;61.00;;;;;;5071160;28;20040;-79
2023/04/20 00:44:30;;;;;;;0.10;0.10;;;8.10;76.70;;;;;;5072053;28;20041;-80
2023/04/20 00:46:56;;;;;;;0.25;0.25;;;8.00;72.20;;;;;;5070182;28;20444;-79
2023/04/20 00:49:24;;;;;;;0.00;0.00;;;8.00;89.70;;;;;;5069863;28;20048;-79
2023/04/20 00:51:50;;;;;;;0.22;0.20;;;8.10;80.50;;;;;;5055938;28;20471;-80
2023/04/20 00:54:15;;;;;;;0.05;0.05;;;8.00;83.00;;;;;;5050695;28;20049;-80
2023/04/20 00:56:41;;;;;;;0.00;0.00;;;8.00;97.10;;;;;;5049387;28;20045;-79
2023/04/20 00:59:07;;;;;;;0.32;0.32;;;8.00;94.90;;;;;;5055707;28;20110;-78
2023/04/20 01:01:33;;;;;;;0.00;0.00;;;8.10;92.80;;;;;;5057623;28;20041;-80
2023/04/20 01:03:59;;;;;;;2.63;0.70;;;8.10;84.90;;;;;;5046388;28;20083;-78
2023/04/20 01:06:26;;;;;;;0.00;0.00;;;8.10;70.30;;;;;;5050426;28;20053;-80
2023/04/20 01:08:52;;;;;;;3.00;1.45;;;8.20;72.50;;;;;;5049767;28;20080;-79
2023/04/20 01:11:20;;;;;;;0.43;0.38;;;8.20;78.80;;;;;;5058437;28;20095;-79
2023/04/20 01:13:46;;;;;;;0.20;0.17;;;8.20;91.20;;;;;;5070100;28;20068;-80
2023/04/20 01:16:12;;;;;;;0.10;0.10;;;8.10;89.60;;;;;;5068891;28;20047;-79
2023/04/20 01:18:48;;;;;;;0.00;0.00;;;8.10;95.00;;;;;;5069128;28;20110;-79
2023/04/20 01:21:15;;;;;;;;;;;8.70;84.90;;;;;;5063047;28;20083;-79
2023/04/20 01:23:41;;;;;;;0.00;0.00;;;8.10;92.70;;;;;;5049495;28;20329;-79
2023/04/20 01:26:09;;;;;;;1.95;1.52;;;8.10;57.40;;;;;;5051552;28;20184;-81
2023/04/20 01:28:35;;;;;;;0.00;0.00;;;8.10;73.20;;;;;;5047833;28;20061;-79
2023/04/20 01:31:05;;;;;;;0.00;0.00;;;8.00;69.00;;;;;;5052094;28;20055;-79
2023/04/20 01:33:31;;;;;;;0.55;0.15;;;8.00;53.70;;;;;;5048372;28;20564;-78
2023/04/20 01:35:57;;;;;;;0.00;0.00;;;8.00;76.00;;;;;;5051545;28;20445;-80
2023/04/20 01:38:24;;;;;;;0.52;0.25;;;8.00;86.40;;;;;;5050933;28;20059;-79
2023/04/20 01:40:50;;;;;;;0.55;0.40;;;8.00;99.90;;;;;;5066762;28;20510;-79
2023/04/20 01:43:16;;;;;;;0.10;0.10;;;8.00;99.90;;;;;;5050624;28;20102;-79
2023/04/20 01:45:42;;;;;;;0.10;0.05;;;7.90;99.90;;;;;;5048442;28;20431;-80
2023/04/20 01:48:08;;;;;;;0.13;0.10;;;7.90;99.90;;;;;;5047881;28;20044;-79
2023/04/20 01:50:33;;;;;;;0.10;0.10;;;8.20;99.90;;;;;;5049712;28;20123;-80
2023/04/20 01:52:59;;;;;;;0.00;0.00;;;7.80;99.90;;;;;;5051831;28;20037;-79
2023/04/20 01:55:25;;;;;;;0.00;0.00;;;7.80;99.90;;;;;;5050121;28;20100;-79
2023/04/20 01:57:51;;;;;;;0.00;0.00;;;7.70;99.90;;;;;;5046943;28;20049;-79
2023/04/20 02:00:17;;;;;;;0.10;0.10;;;7.60;99.90;;;;;;5064123;28;20418;-79
2023/04/20 02:02:42;;;;;;;0.00;0.00;;;7.50;99.90;;;;;;5070084;28;20044;-80
2023/04/20 02:05:09;;;;;;;0.00;0.00;;;7.40;99.90;;;;;;5067702;28;20470;-80
2023/04/20 02:07:35;;;;;;;0.20;0.20;;;7.30;99.90;;;;;;5070399;28;20143;-80
2023/04/20 02:10:01;;;;;;;4.38;1.38;;;7.20;1.00;;;;;;5070097;28;20049;-79
2023/04/20 02:12:27;;;;;;;0.38;0.38;;;7.20;1.00;;;;;;5069629;28;20427;-78
2023/04/20 02:14:52;;;;;;;0.57;0.47;;;7.10;59.30;;;;;;5068248;28;20116;-79
2023/04/20 02:17:20;;;;;;;1.55;0.98;;;7.10;99.90;;;;;;5070130;28;20060;-80
2023/04/20 02:19:46;;;;;;;0.32;0.10;;;7.30;99.90;;;;;;5072117;28;20048;-79
2023/04/20 02:22:12;;;;;;;0.00;0.00;;;7.30;99.90;;;;;;5073184;28;20059;-78
2023/04/20 02:24:38;;;;;;;0.22;0.22;;;7.30;99.90;;;;;;5075229;28;20036;-78
2023/04/20 02:27:04;;;;;;;0.10;0.10;;;7.40;99.90;;;;;;5078318;28;20067;-79
2023/04/20 02:29:30;;;;;;;2.10;0.35;;;7.40;99.90;;;;;;5080582;28;20037;-80
2023/04/20 02:31:56;;;;;;;5.38;0.85;;;7.40;99.90;;;;;;5078609;28;20071;-79
2023/04/20 02:34:21;;;;;;;0.00;0.00;;;7.50;99.90;;;;;;5079661;28;20394;-79
2023/04/20 02:36:47;;;;;;;2.85;1.10;;;7.60;99.90;;;;;;5077997;28;20037;-80
2023/04/20 02:39:13;;;;;;;0.00;0.00;;;7.80;99.90;;;;;;5072178;28;20545;-79
2023/04/20 02:41:39;;;;;;;0.32;0.10;;;7.70;1.00;;;;;;5058327;28;20090;-79
2023/04/20 02:44:05;;;;;;;0.08;0.08;;;7.80;1.00;;;;;;5058951;28;20036;-79
2023/04/20 02:46:33;;;;;;;0.00;0.00;;;7.80;1.00;;;;;;5057072;28;20136;-80
2023/04/20 02:48:59;;;;;;;0.00;0.00;;;7.80;99.90;;;;;;5057415;28;20045;-79
2023/04/20 02:51:25;;;;;;;0.85;0.38;;;7.80;99.90;;;;;;5055705;28;20052;-79
2023/04/20 02:53:50;;;;;;;0.10;0.10;;;7.90;99.90;;;;;;5053379;28;20048;-78
2023/04/20 02:56:16;;;;;;;0.40;0.38;;;8.00;99.90;;;;;;5064482;28;20452;-78
2023/04/20 02:58:42;;;;;;;0.15;0.13;;;8.00;99.90;;;;;;5087683;28;20075;-79
2023/04/20 03:01:08;;;;;;;0.20;0.20;;;8.00;99.90;;;;;;5071052;28;20044;-79
2023/04/20 03:03:34;;;;;;;0.00;0.00;;;8.10;85.50;;;;;;5072728;28;20051;-79
2023/04/20 03:05:59;;;;;;;0.85;0.73;;;8.20;50.70;;;;;;5063611;28;20089;-79
2023/04/20 03:08:25;;;;;;;0.00;0.00;;;8.20;36.80;;;;;;5069050;28;20108;-79
2023/04/20 03:10:51;;;;;;;0.00;0.00;;;8.20;17.90;;;;;;5086490;28;20058;-79
2023/04/20 03:13:17;;;;;;;0.00;0.00;;;8.30;17.20;;;;;;5090850;28;20044;-80
2023/04/20 03:15:43;;;;;;;0.00;0.00;;;8.30;14.10;;;;;;5075429;28;20080;-79
2023/04/20 03:18:08;;;;;;;0.43;0.35;;;8.20;12.20;;;;;;5072675;28;20063;-78
2023/04/20 03:20:34;;;;;;;0.00;0.00;;;8.20;1.00;;;;;;5069706;28;20048;-78
2023/04/20 03:23:00;;;;;;;0.52;0.50;;;8.10;1.00;;;;;;5071229;28;20398;-79
2023/04/20 03:25:26;;;;;;;0.00;0.00;;;8.10;1.00;;;;;;5070772;28;20055;-79
2023/04/20 03:27:52;;;;;;;0.10;0.10;;;8.10;1.00;;;;;;5069904;28;20044;-80
2023/04/20 03:30:17;;;;;;;0.32;0.32;;;8.10;1.00;;;;;;5059888;28;20033;-79
2023/04/20 03:32:44;;;;;;;0.60;0.28;;;8.10;1.00;;;;;;5051768;28;20099;-79
2023/04/20 03:35:10;;;;;;;0.00;0.00;;;8.10;1.00;;;;;;5062298;28;20048;-78
2023/04/20 03:37:36;;;;;;;0.00;0.00;;;8.90;1.00;;;;;;5071824;28;20040;-80
2023/04/20 03:40:02;;;;;;;0.00;0.00;;;8.20;1.00;;;;;;5070451;28;20108;-80
2023/04/20 03:42:29;;;;;;;0.00;0.00;;;8.10;1.00;;;;;;5070695;28;20045;-79
2023/04/20 03:44:54;;;;;;;0.00;0.00;;;8.20;1.00;;;;;;5064851;28;20380;-79
2023/04/20 03:47:20;;;;;;;0.00;0.00;;;8.10;1.00;;;;;;5051101;28;20060;-79
2023/04/20 03:49:49;;;;;;;0.00;0.00;;;8.30;1.00;;;;;;5050658;28;20100;-79
2023/04/20 03:52:15;;;;;;;0.10;0.10;;;8.10;1.00;;;;;;5050544;28;20048;-80
2023/04/20 03:54:40;;;;;;;0.08;0.05;;;8.20;1.00;;;;;;5052734;28;20045;-79
2023/04/20 03:57:06;;;;;;;0.20;0.20;;;8.20;1.00;;;;;;5050745;28;20131;-80
2023/04/20 03:59:32;;;;;;;0.10;0.10;;;8.20;1.00;;;;;;5050544;28;20082;-79
2023/04/20 04:01:58;;;;;;;0.38;0.20;;;8.20;1.00;;;;;;5050467;28;20044;-80
2023/04/20 04:04:24;;;;;;;1.08;0.20;;;9.20;1.00;;;;;;5051487;28;20402;-79
2023/04/20 04:06:50;;;;;;;0.98;0.45;;;8.00;1.00;;;;;;5051900;28;20040;-79
2023/04/20 04:09:16;;;;;;;0.73;0.40;;;7.90;1.00;;;;;;5050846;28;20048;-79
2023/04/20 04:11:41;;;;;;;0.32;0.32;;;7.90;1.00;;;;;;5048871;28;20588;-79
2023/04/20 04:14:07;;;;;;;0.10;0.10;;;7.90;1.00;;;;;;5050397;28;20041;-79
2023/04/20 04:16:33;;;;;;;0.00;0.00;;;7.80;1.00;;;;;;5050785;28;20095;-80
2023/04/20 04:18:59;;;;;;;0.10;0.10;;;7.80;1.00;;;;;;5050117;28;20061;-79
2023/04/20 04:21:25;;;;;;;0.75;0.75;;;7.80;1.00;;;;;;5056221;28;20056;-79
2023/04/20 04:23:50;;;;;;;0.00;0.00;;;7.80;1.00;;;;;;5071400;28;20040;-80
2023/04/20 04:26:17;;;;;;;0.00;0.00;;;7.80;1.00;;;;;;5070735;28;20502;-79
2023/04/20 04:28:44;;;;;;;0.50;0.50;;;7.80;1.00;;;;;;5068218;28;20055;-79
2023/04/20 04:31:11;;;;;;;0.30;0.30;;;7.80;1.00;;;;;;5064344;28;20049;-78
2023/04/20 04:33:36;;;;;;;0.00;0.00;;;8.90;1.00;;;;;;5049536;28;20053;-80
2023/04/20 04:36:03;;;;;;;0.00;0.00;;;7.80;1.00;;;;;;5051276;28;20051;-79
2023/04/20 04:38:30;;;;;;;0.00;0.00;;;7.80;1.00;;;;;;5045159;28;20143;-79
2023/04/20 04:40:56;;;;;;;1.50;0.73;;;7.80;1.00;;;;;;5035563;28;20124;-79
2023/04/20 04:43:23;;;;;;;0.10;0.10;;;7.80;1.00;;;;;;5046696;28;20132;-78
2023/04/20 04:45:49;;;;;;;0.20;0.20;;;7.80;1.00;;;;;;5049856;28;20103;-79
2023/04/20 04:48:14;;;;;;;0.08;0.08;;;7.80;1.00;;;;;;5032399;28;20041;-79
2023/04/20 04:50:40;;;;;;;0.10;0.10;;;7.50;99.90;;;;;;5052432;28;20068;-80
2023/04/20 04:53:06;;;;;;;0.00;0.00;;;7.10;1.00;;;;;;5052453;28;20095;-80
2023/04/20 04:55:32;;;;;;;2.83;1.23;;;6.70;99.90;;;;;;5051964;28;20084;-80
2023/04/20 04:57:58;;;;;;;0.22;0.22;;;6.50;99.90;;;;;;5052707;28;20041;-80
2023/04/20 05:00:24;;;;;;;0.00;0.00;;;6.30;99.90;;;;;;5062470;28;20048;-81
2023/04/20 05:02:51;;;;;;;0.10;0.10;;;6.20;99.90;;;;;;5073776;28;20460;-82
2023/04/20 05:05:21;;;;;;;0.25;0.25;;;6.60;99.90;;;;;;5072855;28;20532;-80
2023/04/20 05:07:47;;;;;;;0.03;0.03;;;6.10;1.00;;;;;;5071387;28;20048;-81
2023/04/20 05:10:12;;;;;;;0.17;0.17;;;6.10;99.90;;;;;;5063422;28;20036;-81
2023/04/20 05:12:38;;;;;;;0.00;0.00;;;6.10;99.90;;;;;;5052436;28;20073;-80
2023/04/20 05:15:05;;;;;;;0.00;0.00;;;6.00;1.00;;;;;;5051514;28;20538;-80
2023/04/20 05:17:31;;;;;;;0.00;0.00;;;6.00;99.90;;;;;;5052359;28;20046;-81
2023/04/20 05:19:56;;;;;;;0.00;0.00;;;6.00;32.30;;;;;;5052195;28;20049;-81
2023/04/20 05:22:22;;;;;;;0.03;0.03;;;5.90;1.00;;;;;;5062864;28;20051;-82
2023/04/20 05:24:49;;;;;;;0.52;0.52;;;5.90;15.70;;;;;;5058557;28;20071;-81
2023/04/20 05:27:15;;;;;;;0.45;0.45;;;6.00;99.90;;;;;;5066125;28;20092;-82
2023/04/20 05:29:40;;;;;;;0.30;0.30;;;6.00;67.10;;;;;;5063089;28;20041;-81
2023/04/20 05:32:06;;;;;;;0.00;0.00;;;6.10;99.90;;;;;;5053006;28;20457;-80
2023/04/20 05:34:32;;;;;;;0.30;0.30;;;6.20;99.90;;;;;;5052579;28;20525;-80
2023/04/20 05:36:58;;;;;;;0.98;0.65;;;6.20;99.90;;;;;;5035028;28;20124;-82
2023/04/20 05:39:24;;;;;;;1.48;1.40;;;6.20;1.00;;;;;;5052640;28;20120;-81
2023/04/20 05:41:50;;;;;;;0.35;0.25;;;6.20;99.90;;;;;;5067223;28;20428;-81
2023/04/20 05:44:22;;;;;;;0.00;0.00;;;6.20;99.90;;;;;;5047082;28;20052;-81
2023/04/20 05:46:49;;;;;;;0.28;0.28;;;6.10;1.10;;;;;;5067015;28;20040;-81
2023/04/20 05:49:15;;;;;;;0.00;0.00;;;6.00;1.00;;;;;;5065797;28;20384;-81
2023/04/20 05:51:40;;;;;;;0.00;0.00;;;5.90;95.30;;;;;;5062831;28;20047;-80
2023/04/20 05:54:06;;;;;;;0.15;0.15;;;5.80;1.00;;;;;;5057199;28;20040;-80
2023/04/20 05:56:32;;;;;;;0.30;0.30;;;5.70;99.90;;;;;;5066304;28;20528;-80
2023/04/20 05:58:58;;;;;;;0.08;0.08;;;5.70;99.90;;;;;;5069119;28;20086;-81
2023/04/20 06:01:24;;;;;;;0.03;0.03;;;5.70;99.90;;;;;;5079319;28;20042;-81
2023/04/20 06:03:49;;;;;;;0.30;0.30;;;5.70;99.90;;;;;;5086964;28;20036;-81
2023/04/20 06:06:15;;;;;;;0.10;0.10;;;5.80;99.90;;;;;;5087138;28;20044;-81
2023/04/20 06:08:41;;;;;;;0.20;0.20;;;5.80;92.10;;;;;;5079018;28;20475;-80
2023/04/20 06:11:07;;;;;;;0.30;0.30;;;5.80;99.90;;;;;;5074696;28;20044;-80
2023/04/20 06:13:32;;;;;;;0.70;0.70;;;5.80;84.20;;;;;;5076391;28;20041;-81
2023/04/20 06:15:58;;;;;;;0.10;0.10;;;5.80;99.90;;;;;;5078263;28;20570;-82
2023/04/20 06:18:24;;;;;;;0.00;0.00;;;5.80;99.90;;;;;;5070551;28;20052;-81
2023/04/20 06:20:49;;;;;;;0.00;0.00;;;5.80;99.90;;;;;;5066219;28;20049;-81
2023/04/20 06:23:15;;;;;;;0.08;0.08;;;5.70;99.90;;;;;;5058004;28;20040;-82
2023/04/20 06:25:41;;;;;;;0.00;0.00;;;5.80;99.90;;;;;;5049359;28;20040;-81
2023/04/20 06:28:07;;;;;;;0.00;0.00;;;5.70;99.90;;;;;;5049679;28;20044;-81
2023/04/20 06:30:33;;;;;;;0.13;0.13;;;5.70;99.90;;;;;;5048679;28;20057;-81
2023/04/20 06:33:00;;;;;;;0.10;0.10;;;5.70;99.90;;;;;;5047533;28;20048;-81
2023/04/20 06:35:25;;;;;;;0.10;0.10;;;5.70;99.90;;;;;;5049180;28;20048;-81
2023/04/20 06:37:51;;;;;;;0.52;0.52;;;5.80;99.90;;;;;;5050095;28;20045;-81
2023/04/20 06:40:17;;;;;;;0.05;0.05;;;5.80;99.90;;;;;;5049648;28;20057;-82
2023/04/20 06:42:44;;;;;;;0.90;0.70;;;5.80;99.90;;;;;;5049883;28;20376;-81
2023/04/20 06:45:10;;;;;;;0.15;0.15;;;5.90;99.90;;;;;;5048004;28;20117;-82
2023/04/20 06:47:36;;;;;;;0.55;0.45;;;5.80;99.90;;;;;;5049873;28;20052;-83
2023/04/20 06:50:08;;;;;;;0.20;0.20;;;5.80;99.90;;;;;;5048636;28;20044;-83
2023/04/20 06:52:35;;;;;;;0.20;0.20;;;5.70;99.90;;;;;;5050057;28;20045;-83
2023/04/20 06:55:04;;;;;;;0.13;0.13;;;5.60;99.90;;;;;;5052144;28;20103;-82
2023/04/20 06:57:30;;;;;;;0.20;0.20;;;5.60;99.90;;;;;;5052078;28;20045;-82
2023/04/20 06:59:57;;;;;;;0.00;0.00;;;5.60;99.90;;;;;;5049465;28;20486;-84
2023/04/20 07:02:23;;;;;;;0.60;0.52;;;5.60;99.90;;;;;;5048992;28;20079;-84
2023/04/20 07:04:49;;;;;;;0.38;0.30;;;5.50;99.90;;;;;;5051388;28;20110;-84
2023/04/20 07:07:15;;;;;;;0.00;0.00;;;5.50;99.90;;;;;;5055623;28;20046;-83
2023/04/20 07:09:41;;;;;;;0.03;0.03;;;5.50;99.90;;;;;;5052866;28;20049;-83
2023/04/20 07:12:07;;;;;;;0.38;0.15;;;5.40;99.90;;;;;;5053745;28;20060;-83
2023/04/20 07:14:33;;;;;;;0.00;0.00;;;5.40;99.90;;;;;;5056049;28;20048;-82
2023/04/20 07:16:58;;;;;;;0.08;0.08;;;5.40;99.90;;;;;;5054540;28;20045;-84
2023/04/20 07:19:24;;;;;;;0.00;0.00;;;5.40;99.90;;;;;;5053153;28;20085;-83
2023/04/20 07:21:50;;;;;;;2.72;1.67;;;5.40;99.90;;;;;;5053531;28;20278;-83
2023/04/20 07:24:16;;;;;;;0.00;0.00;;;5.40;99.90;;;;;;5055340;28;20083;-83
2023/04/20 07:26:42;;;;;;;5.07;1.00;;;5.50;99.90;;;;;;5055346;28;20045;-84
2023/04/20 07:29:08;;;;;;;0.00;0.00;;;5.60;99.90;;;;;;5055173;28;20072;-84
2023/04/20 07:31:33;;;;;;;0.30;0.30;;;5.60;99.90;;;;;;5055826;28;20076;-84
2023/04/20 07:33:59;;;;;;;1.38;0.60;;;5.70;99.90;;;;;;5054810;28;20047;-84
2023/04/20 07:36:25;;;;;;;0.00;0.00;;;5.80;99.90;;;;;;5054882;28;20113;-84
2023/04/20 07:38:51;;;;;;;0.08;0.08;;;5.80;99.90;;;;;;5062024;28;20033;-83
2023/04/20 07:41:17;;;;;;;0.10;0.10;;;5.80;99.90;;;;;;5067064;28;20051;-82
2023/04/20 07:43:43;;;;;;;0.00;0.00;;;5.80;99.90;;;;;;5067669;28;20144;-84
2023/04/20 07:46:09;;;;;;;0.43;0.32;;;5.80;99.90;;;;;;5065928;28;20110;-82
2023/04/20 07:48:35;;;;;;;0.10;0.10;;;5.80;99.90;;;;;;5067607;28;20049;-83
2023/04/20 07:51:01;;;;;;;0.30;0.30;;;5.80;99.90;;;;;;5067168;28;20037;-82
2023/04/20 07:53:28;;;;;;;0.00;0.00;;;5.90;99.90;;;;;;5066863;28;20543;-82
2023/04/20 07:55:54;;;;;;;0.03;0.03;;;5.90;99.90;;;;;;5063127;28;20051;-83
2023/04/20 07:58:20;;;;;;;0.00;0.00;;;5.90;99.90;;;;;;5057869;28;20072;-83
2023/04/20 08:00:46;;;;;;;0.10;0.10;;;5.90;99.90;;;;;;5055325;28;20500;-84
2023/04/20 08:03:12;;;;;;;0.00;0.00;;;5.80;99.90;;;;;;5053455;28;20052;-83
2023/04/20 08:05:39;;;;;;;0.00;0.00;;;5.90;99.90;;;;;;5054144;28;20044;-83
2023/04/20 08:08:05;;;;;;;0.00;0.00;;;5.90;99.90;;;;;;5055989;28;20052;-83
2023/04/20 08:10:31;;;;;;;0.20;0.20;;;6.00;99.90;;;;;;5054409;28;20403;-83
2023/04/20 08:12:58;;;;;;;0.13;0.10;;;6.40;99.90;;;;;;5054206;28;20467;-83
2023/04/20 08:15:23;;;;;;;0.08;0.08;;;6.20;99.90;;;;;;5052454;28;20053;-83
2023/04/20 08:17:49;;;;;;;0.05;0.05;;;6.30;99.90;;;;;;5052905;28;20156;-82
2023/04/20 08:20:15;;;;;;;0.28;0.20;;;6.40;1.00;;;;;;5053536;28;20479;-82
2023/04/20 08:22:41;;;;;;;0.47;0.43;;;6.40;99.90;;;;;;5053592;28;20131;-81
2023/04/20 08:25:07;;;;;;;1.55;0.40;;;6.50;99.90;;;;;;5053038;28;20047;-82
2023/04/20 08:27:33;;;;;;;0.35;0.35;;;6.50;1.00;;;;;;5054494;28;20057;-83
2023/04/20 08:29:59;;;;;;;0.15;0.08;;;6.60;99.90;;;;;;5052581;28;20087;-82
2023/04/20 08:32:25;;;;;;;0.75;0.45;;;6.70;99.90;;;;;;5053517;28;20048;-82
2023/04/20 08:34:52;;;;;;;0.08;0.08;;;6.80;99.90;;;;;;5053105;28;20045;-82
2023/04/20 08:37:21;;;;;;;0.00;0.00;;;6.80;1.00;;;;;;5053122;28;20052;-82
2023/04/20 08:39:50;;;;;;;2.85;1.73;;;6.30;24.30;;;;;;5054376;28;20076;-83
2023/04/20 08:42:15;;;;;;;0.22;0.20;;;6.70;1.00;;;;;;5052499;28;20044;-82
2023/04/20 08:44:41;;;;;;;0.35;0.35;;;6.60;99.90;;;;;;5052853;28;20076;-83
2023/04/20 08:47:10;;;;;;;0.00;0.00;;;6.50;99.90;;;;;;5053750;28;20406;-82
2023/04/20 08:49:38;;;;;;;0.00;0.00;;;6.50;99.90;;;;;;5053999;28;20052;-82
2023/04/20 08:52:04;;;;;;;0.30;0.30;;;6.60;99.90;;;;;;5053091;28;20518;-82
2023/04/20 08:54:30;;;;;;;0.52;0.52;;;6.70;99.90;;;;;;5053239;28;20048;-82
2023/04/20 08:56:56;;;;;;;0.05;0.05;;;6.80;99.90;;;;;;5053304;28;20437;-82
2023/04/20 08:59:24;;;;;;;0.10;0.10;;;7.10;99.90;;;;;;5054988;28;20057;-82
2023/04/20 09:01:49;;;;;;;0.00;0.00;;;7.30;1.00;;;;;;5056328;28;20555;-83
2023/04/20 09:04:27;;;;;;;0.10;0.10;;;7.50;99.90;;;;;;5061535;28;20037;-82
2023/04/20 09:06:55;;;;;;;0.55;0.45;;;7.60;1.00;;;;;;5066373;28;20024;-82
2023/04/20 09:09:22;;;;;;;0.43;0.32;;;7.90;99.90;;;;;;5066582;28;20045;-83
2023/04/20 09:12:01;;;;;;;0.10;0.10;;;7.90;28.70;;;;;;5067639;28;20163;-82
2023/04/20 09:14:27;;;;;;;0.05;0.05;;;8.00;99.90;;;;;;5065045;28;20045;-82
2023/04/20 09:17:03;;;;;;;0.00;0.00;;;8.30;99.90;;;;;;5065224;28;20037;-81
2023/04/20 09:19:30;;;;;;;1.23;0.47;;;8.40;1.00;;;;;;5066512;28;20080;-82
2023/04/20 09:22:00;;;;;;;0.17;0.08;;;8.50;99.90;;;;;;5064921;28;20059;-82
2023/04/20 09:24:37;;;;;;;0.00;0.00;;;8.50;99.90;;;;;;5065206;28;20048;-81
2023/04/20 09:27:17;;;;;;;0.80;0.25;;;8.40;1.00;;;;;;5069458;28;20056;-82
2023/04/20 09:29:56;;;;;;;0.52;0.45;;;8.00;1.00;;;;;;5068591;28;20029;-81
2023/04/20 09:32:23;;;;;;;0.45;0.10;;;7.80;1.00;;;;;;5070331;28;20041;-83
2023/04/20 09:34:49;;;;;;;0.95;0.52;;;7.70;1.00;;;;;;5069924;28;20049;-82
2023/04/20 09:37:15;;;;;;;0.43;0.43;;;7.70;38.90;;;;;;5069959;28;20036;-81
2023/04/20 09:39:43;;;;;;;0.20;0.20;;;7.70;1.00;;;;;;5070470;28;20025;-81
2023/04/20 09:42:13;;;;;;;2.10;0.30;;;7.80;1.00;;;;;;5059177;28;20052;-82
2023/04/20 09:44:40;;;;;;;1.65;0.80;;;7.80;99.90;;;;;;5052090;28;20426;-82
2023/04/20 09:47:06;;;;;;;0.35;0.35;;;7.80;99.90;;;;;;5052136;28;20045;-82
2023/04/20 09:49:32;;;;;;;0.17;0.17;;;7.80;1.00;;;;;;5053042;28;20067;-83
2023/04/20 09:52:02;;;;;;;1.02;0.98;;;7.80;1.00;;;;;;5053814;28;20044;-81
2023/04/20 09:54:28;;;;;;;0.22;0.20;;;7.80;99.90;;;;;;5052779;28;20057;-81
2023/04/20 09:56:55;;;;;;;0.20;0.20;;;7.90;1.00;;;;;;5053375;28;20045;-82
2023/04/20 09:59:21;;;;;;;0.70;0.70;;;7.90;1.00;;;;;;5051625;28;20414;-82
2023/04/20 10:01:47;;;;;;;1.65;1.00;;;8.00;99.90;;;;;;5051882;28;20045;-82
2023/04/20 10:04:13;;;;;;;0.00;0.00;;;8.00;1.00;;;;;;5051886;28;20357;-82
2023/04/20 10:06:50;;;;;;;1.55;1.45;;;8.00;99.90;;;;;;5034731;28;20048;-82
2023/04/20 10:09:23;;;;;;;0.17;0.10;;;7.90;99.90;;;;;;5052219;28;20067;-81
2023/04/20 10:11:49;;;;;;;0.22;0.17;;;7.80;99.90;;;;;;5050770;28;20520;-82
2023/04/20 10:14:17;;;;;;;0.10;0.10;;;7.80;99.90;;;;;;5051433;28;20088;-81
2023/04/20 10:16:45;;;;;;;11.57;2.60;;;7.80;1.00;;;;;;5050847;28;20414;-81
2023/04/20 10:19:12;;;;;;;1.15;0.90;;;7.80;1.00;;;;;;5051574;28;20071;-81
2023/04/20 10:21:49;;;;;;;0.30;0.30;;;7.80;99.90;;;;;;5052579;28;20061;-81
2023/04/20 10:24:27;;;;;;;0.03;0.03;;;7.90;99.90;;;;;;5052757;28;20103;-82
2023/04/20 10:26:53;;;;;;;0.00;0.00;;;8.00;99.90;;;;;;5051924;28;20053;-81
2023/04/20 10:29:24;;;;;;;0.10;0.10;;;8.10;56.20;;;;;;5050571;28;20098;-81
2023/04/20 10:31:50;;;;;;;0.10;0.10;;;8.20;99.90;;;;;;5051761;28;20044;-82
2023/04/20 10:34:17;;;;;;;0.00;0.00;;;8.20;99.90;;;;;;5051292;28;20075;-82
2023/04/20 10:36:43;;;;;;;0.32;0.32;;;8.30;99.90;;;;;;5051457;28;20110;-83
2023/04/20 10:39:20;;;;;;;0.20;0.20;;;8.30;99.90;;;;;;5050181;28;20045;-81
2023/04/20 10:42:02;;;;;;;1.17;0.88;;;8.30;99.90;;;;;;5055917;28;20045;-84
2023/04/20 10:44:28;;;;;;;0.10;0.10;;;8.20;99.90;;;;;;5052663;28;20045;-82
2023/04/20 10:46:55;;;;;;;1.35;0.20;;;8.40;78.60;;;;;;5052294;28;20040;-82
2023/04/20 10:49:27;;;;;;;0.15;0.15;;;8.50;99.90;;;;;;5052014;28;20057;-83
2023/04/20 10:51:53;;;;;;;0.43;0.43;;;8.70;99.90;;;;;;5054037;28;20571;-81
2023/04/20 10:54:19;;;;;;;0.47;0.47;;;9.10;1.00;;;;;;5053446;28;20051;-82
2023/04/20 10:56:52;;;;;;;0.28;0.25;;;9.00;99.90;;;;;;5054524;28;20041;-82
2023/04/20 10:59:23;;;;;;;0.22;0.22;;;8.80;1.00;;;;;;5054573;28;20131;-81
2023/04/20 11:01:50;;;;;;;0.20;0.20;;;8.70;1.00;;;;;;5053006;28;20057;-81
2023/04/20 11:04:16;;;;;;;1.27;0.35;;;8.40;8.60;;;;;;5053227;28;20048;-81
2023/04/20 11:06:44;;;;;;;0.00;0.00;;;8.30;1.00;;;;;;5053571;28;20049;-82
2023/04/20 11:09:20;;;;;;;0.17;0.17;;;8.30;99.90;;;;;;5054937;28;20051;-82
2023/04/20 11:11:56;;;;;;;0.25;0.25;;;8.40;18.10;;;;;;5054817;28;20045;-83
2023/04/20 11:14:22;;;;;;;0.00;0.00;;;8.30;71.30;;;;;;5053954;28;20070;-81
2023/04/20 11:16:52;;;;;;;1.15;1.05;;;8.10;99.90;;;;;;5054093;28;20445;-81
2023/04/20 11:19:29;;;;;;;4.53;1.45;;;8.00;99.90;;;;;;5053554;28;20056;-82
2023/04/20 11:21:55;;;;;;;0.43;0.30;;;8.10;99.90;;;;;;5054240;28;20087;-82
2023/04/20 11:24:22;;;;;;;1.02;0.77;;;8.20;99.90;;;;;;5052826;28;20045;-82
2023/04/20 11:26:49;;;;;;;0.10;0.08;;;8.20;31.30;;;;;;5060291;28;20041;-82
2023/04/20 11:29:33;;;;;;;1.58;0.45;;;9.10;99.90;;;;;;5059387;28;20118;-81
2023/04/20 11:32:05;;;;;;;0.03;0.03;;;8.30;1.00;;;;;;5059710;28;20096;-81
2023/04/20 11:34:35;;;;;;;0.10;0.10;;;8.30;42.10;;;;;;5043468;28;20066;-82
2023/04/20 11:37:06;;;;;;;1.45;0.93;;;8.20;1.00;;;;;;5056965;28;20525;-81
2023/04/20 11:39:35;;;;;;;0.85;0.85;;;8.30;99.90;;;;;;5053805;28;20068;-81
2023/04/20 11:42:01;;;;;;;1.15;0.98;;;8.00;99.90;;;;;;5053815;28;20049;-82
2023/04/20 11:44:27;;;;;;;1.20;0.85;;;7.90;99.90;;;;;;5052788;28;20407;-82
2023/04/20 11:46:55;;;;;;;1.27;0.40;;;7.80;99.90;;;;;;5052182;28;20052;-82
2023/04/20 11:49:26;;;;;;;0.90;0.75;;;7.90;1.00;;;;;;5051722;28;20049;-82
2023/04/20 11:51:52;;;;;;;0.52;0.52;;;8.10;99.90;;;;;;5052237;28;20049;-82
2023/04/20 11:54:24;;;;;;;0.10;0.10;;;8.20;1.00;;;;;;5063046;28;20125;-81
2023/04/20 11:56:49;;;;;;;2.55;1.10;;;8.40;99.90;;;;;;5073136;28;20079;-82
2023/04/20 11:59:18;;;;;;;1.33;1.13;;;8.70;99.90;;;;;;5072071;28;20430;-82
2023/04/20 12:01:44;;;;;;;0.30;0.30;;;8.80;1.00;;;;;;5069755;28;20078;-83
2023/04/20 12:04:10;;;;;;;0.38;0.38;;;9.00;99.90;;;;;;5071580;28;20095;-82
2023/04/20 12:06:36;;;;;;;4.85;0.55;;;10.00;99.90;;;;;;5070158;28;20074;-81
2023/04/20 12:09:04;;;;;;;1.45;1.00;;;9.50;99.90;;;;;;5052509;28;20075;-82
2023/04/20 12:11:30;;;;;;;0.70;0.52;;;10.80;82.10;;;;;;5070078;28;20052;-83
2023/04/20 12:13:56;;;;;;;1.15;1.05;;;12.20;99.90;;;;;;5067962;28;20044;-81
2023/04/20 12:16:21;;;;;;;1.75;1.05;;;12.50;1.00;;;;;;5070705;28;20072;-83
2023/04/20 12:18:47;;;;;;;21.65;1.10;;;11.90;1.00;;;;;;5066755;28;20059;-83
2023/04/20 12:21:13;;;;;;;0.05;0.05;;;12.40;1.00;;;;;;5057623;28;20049;-83
2023/04/20 12:23:39;;;;;;;2.38;0.80;;;12.50;1.00;;;;;;5058483;28;20049;-82
2023/04/20 12:26:05;;;;;;;2.83;1.13;;;12.70;99.90;;;;;;5053734;28;20489;-82
2023/04/20 12:28:34;;;;;;;0.90;0.90;;;13.40;1.00;;;;;;5050558;28;20053;-82
2023/04/20 12:31:01;;;;;;;2.00;0.82;;;13.80;99.90;;;;;;5058727;28;20067;-83
2023/04/20 12:33:27;;;;;;;1.17;0.55;;;13.20;99.90;;;;;;5072644;28;20060;-83
2023/04/20 12:35:53;;;;;;;8.45;2.47;;;13.20;99.90;;;;;;5084006;28;20516;-83
2023/04/20 12:38:18;;;;;;;1.05;0.55;;;12.50;99.90;;;;;;5083005;28;20417;-82
2023/04/20 12:40:44;;;;;;;1.48;1.00;;;12.70;99.90;;;;;;5083429;28;20043;-82
2023/04/20 12:43:10;;;;;;;1.70;0.82;;;13.10;99.90;;;;;;5090899;28;20028;-82
2023/04/20 12:45:36;;;;;;;1.15;0.85;;;14.00;99.90;;;;;;5089108;28;20079;-82
2023/04/20 12:48:04;;;;;;;0.50;0.50;;;13.00;99.90;;;;;;5090500;28;20040;-83
2023/04/20 12:50:30;;;;;;;1.13;1.02;;;14.30;99.90;;;;;;5090502;28;20039;-83
2023/04/20 12:52:57;;;;;;;0.65;0.65;;;12.20;99.90;;;;;;5089972;28;20028;-83
2023/04/20 12:55:23;;;;;;;2.10;0.50;;;11.90;99.90;;;;;;5091069;28;20120;-84
2023/04/20 12:57:49;;;;;;;1.95;0.93;;;11.90;99.90;;;;;;5088005;28;20072;-82